sensor_id;sensor_type;location;lat;lon;timestamp;P1;durP1;ratioP1;P2;durP2;ratioP2
50563;SDS011;36514;52.590;21.448;2023-04-03T00:00:36;0.22;;;0.15;;
50563;SDS011;36514;52.590;21.448;2023-04-03T00:10:38;1.23;;;0.32;;
50563;SDS011;36514;52.590;21.448;2023-04-03T00:20:35;3.15;;;0.60;;
50563;SDS011;36514;52.590;21.448;2023-04-03T00:30:26;2.85;;;1.23;;
50563;SDS011;36514;52.590;21.448;2023-04-03T00:40:19;1.98;;;0.77;;
50563;SDS011;36514;52.590;21.448;2023-04-03T00:50:16;1.26;;;0.43;;
50563;SDS011;36514;52.590;21.448;2023-04-03T01:00:09;0.47;;;0.22;;
50563;SDS011;36514;52.590;21.448;2023-04-03T01:10:07;2.87;;;0.97;;
50563;SDS011;36514;52.590;21.448;2023-04-03T01:29:56;1.35;;;0.75;;
50563;SDS011;36514;52.590;21.448;2023-04-03T01:39:48;17.75;;;1.40;;
50563;SDS011;36514;52.590;21.448;2023-04-03T01:49:45;2.70;;;0.54;;
50563;SDS011;36514;52.590;21.448;2023-04-03T01:59:36;0.28;;;0.28;;
50563;SDS011;36514;52.590;21.448;2023-04-03T02:09:32;3.14;;;1.14;;
50563;SDS011;36514;52.590;21.448;2023-04-03T02:19:28;11.00;;;1.33;;
50563;SDS011;36514;52.590;21.448;2023-04-03T02:29:24;2.55;;;0.95;;
50563;SDS011;36514;52.590;21.448;2023-04-03T02:48:50;0.30;;;0.10;;
50563;SDS011;36514;52.590;21.448;2023-04-03T05:13:07;2.54;;;0.86;;
50563;SDS011;36514;52.590;21.448;2023-04-03T05:22:58;0.47;;;0.38;;
50563;SDS011;36514;52.590;21.448;2023-04-03T05:32:51;0.45;;;0.30;;
50563;SDS011;36514;52.590;21.448;2023-04-03T05:42:44;2.70;;;0.77;;
50563;SDS011;36514;52.590;21.448;2023-04-03T05:52:43;11.94;;;1.63;;
50563;SDS011;36514;52.590;21.448;2023-04-03T06:02:40;1.74;;;0.59;;
50563;SDS011;36514;52.590;21.448;2023-04-03T06:12:36;5.46;;;1.85;;
50563;SDS011;36514;52.590;21.448;2023-04-03T06:22:33;4.55;;;1.34;;
50563;SDS011;36514;52.590;21.448;2023-04-03T06:32:42;2.50;;;1.85;;
50563;SDS011;36514;52.590;21.448;2023-04-03T06:42:35;5.40;;;0.82;;
50563;SDS011;36514;52.590;21.448;2023-04-03T06:52:32;4.12;;;0.98;;
50563;SDS011;36514;52.590;21.448;2023-04-03T07:02:24;0.57;;;0.28;;
50563;SDS011;36514;52.590;21.448;2023-04-03T07:12:17;0.82;;;0.38;;
50563;SDS011;36514;52.590;21.448;2023-04-03T07:22:40;3.05;;;0.87;;
50563;SDS011;36514;52.590;21.448;2023-04-03T07:32:47;2.41;;;1.20;;
50563;SDS011;36514;52.590;21.448;2023-04-03T07:42:46;4.65;;;1.25;;
50563;SDS011;36514;52.590;21.448;2023-04-03T07:52:44;1.05;;;0.70;;
50563;SDS011;36514;52.590;21.448;2023-04-03T08:02:43;1.67;;;1.10;;
50563;SDS011;36514;52.590;21.448;2023-04-03T08:12:38;1.00;;;0.88;;
50563;SDS011;36514;52.590;21.448;2023-04-03T08:22:39;1.25;;;0.52;;
50563;SDS011;36514;52.590;21.448;2023-04-03T08:32:38;1.90;;;1.03;;
50563;SDS011;36514;52.590;21.448;2023-04-03T08:53:10;1.58;;;0.75;;
50563;SDS011;36514;52.590;21.448;2023-04-03T09:03:10;3.22;;;1.25;;
50563;SDS011;36514;52.590;21.448;2023-04-03T09:13:33;5.25;;;1.39;;
50563;SDS011;36514;52.590;21.448;2023-04-03T09:33:52;1.41;;;0.71;;
50563;SDS011;36514;52.590;21.448;2023-04-03T09:43:58;2.09;;;0.95;;
50563;SDS011;36514;52.590;21.448;2023-04-03T10:04:13;2.47;;;1.22;;
50563;SDS011;36514;52.590;21.448;2023-04-03T10:34:44;1.63;;;0.78;;
50563;SDS011;36514;52.590;21.448;2023-04-03T11:04:42;4.35;;;1.55;;
50563;SDS011;36514;52.590;21.448;2023-04-03T11:14:45;1.54;;;1.03;;
50563;SDS011;36514;52.590;21.448;2023-04-03T11:35:07;2.03;;;1.45;;
50563;SDS011;36514;52.590;21.448;2023-04-03T11:54:54;0.85;;;0.55;;
50563;SDS011;36514;52.590;21.448;2023-04-03T12:05:27;1.87;;;0.93;;
50563;SDS011;36514;52.590;21.448;2023-04-03T12:35:37;5.50;;;1.42;;
50563;SDS011;36514;52.590;21.448;2023-04-03T12:45:21;0.85;;;0.47;;
50563;SDS011;36514;52.590;21.448;2023-04-03T12:55:03;1.13;;;0.57;;
50563;SDS011;36514;52.590;21.448;2023-04-03T13:05:16;1.31;;;0.57;;
50563;SDS011;36514;52.590;21.448;2023-04-03T13:15:28;1.88;;;0.83;;
50563;SDS011;36514;52.590;21.448;2023-04-03T13:25:24;3.45;;;0.86;;
50563;SDS011;36514;52.590;21.448;2023-04-03T13:55:18;1.92;;;0.75;;
50563;SDS011;36514;52.590;21.448;2023-04-03T14:05:16;4.69;;;0.85;;
50563;SDS011;36514;52.590;21.448;2023-04-03T14:15:05;6.53;;;0.88;;
50563;SDS011;36514;52.590;21.448;2023-04-03T14:25:05;3.17;;;1.15;;
50563;SDS011;36514;52.590;21.448;2023-04-03T14:34:52;1.60;;;0.60;;
50563;SDS011;36514;52.590;21.448;2023-04-03T14:44:47;3.66;;;1.07;;
50563;SDS011;36514;52.590;21.448;2023-04-03T14:54:47;1.92;;;0.79;;
50563;SDS011;36514;52.590;21.448;2023-04-03T15:04:35;3.38;;;1.10;;
50563;SDS011;36514;52.590;21.448;2023-04-03T15:14:26;3.97;;;1.35;;
50563;SDS011;36514;52.590;21.448;2023-04-03T15:24:20;2.47;;;1.05;;
50563;SDS011;36514;52.590;21.448;2023-04-03T15:34:16;1.85;;;1.02;;
50563;SDS011;36514;52.590;21.448;2023-04-03T15:44:11;5.17;;;1.34;;
50563;SDS011;36514;52.590;21.448;2023-04-03T15:54:05;6.93;;;1.73;;
50563;SDS011;36514;52.590;21.448;2023-04-03T16:04:01;4.39;;;1.72;;
50563;SDS011;36514;52.590;21.448;2023-04-03T16:13:57;4.47;;;1.83;;
50563;SDS011;36514;52.590;21.448;2023-04-03T16:23:47;13.93;;;1.13;;
50563;SDS011;36514;52.590;21.448;2023-04-03T16:33:44;3.92;;;1.90;;
50563;SDS011;36514;52.590;21.448;2023-04-03T16:43:43;5.36;;;2.32;;
50563;SDS011;36514;52.590;21.448;2023-04-03T16:53:39;2.45;;;1.08;;
50563;SDS011;36514;52.590;21.448;2023-04-03T17:03:36;3.60;;;1.89;;
50563;SDS011;36514;52.590;21.448;2023-04-03T17:13:27;3.38;;;1.63;;
50563;SDS011;36514;52.590;21.448;2023-04-03T17:23:18;3.38;;;2.78;;
50563;SDS011;36514;52.590;21.448;2023-04-03T17:33:15;17.63;;;5.09;;
50563;SDS011;36514;52.590;21.448;2023-04-03T17:43:06;5.20;;;2.97;;
50563;SDS011;36514;52.590;21.448;2023-04-03T17:52:58;9.40;;;3.38;;
50563;SDS011;36514;52.590;21.448;2023-04-03T18:02:55;4.43;;;1.75;;
50563;SDS011;36514;52.590;21.448;2023-04-03T18:12:44;4.90;;;2.40;;
50563;SDS011;36514;52.590;21.448;2023-04-03T18:22:42;5.05;;;1.95;;
50563;SDS011;36514;52.590;21.448;2023-04-03T18:32:58;5.30;;;3.00;;
50563;SDS011;36514;52.590;21.448;2023-04-03T18:43:15;6.90;;;2.78;;
50563;SDS011;36514;52.590;21.448;2023-04-03T18:53:03;2.05;;;1.38;;
50563;SDS011;36514;52.590;21.448;2023-04-03T19:03:28;9.53;;;3.95;;
50563;SDS011;36514;52.590;21.448;2023-04-03T19:14:06;6.50;;;4.60;;
50563;SDS011;36514;52.590;21.448;2023-04-03T19:24:26;9.65;;;3.97;;
50563;SDS011;36514;52.590;21.448;2023-04-03T19:34:13;8.40;;;3.75;;
50563;SDS011;36514;52.590;21.448;2023-04-03T19:44:34;3.58;;;2.83;;
50563;SDS011;36514;52.590;21.448;2023-04-03T19:55:21;5.30;;;2.83;;
50563;SDS011;36514;52.590;21.448;2023-04-03T20:05:39;11.15;;;4.36;;
50563;SDS011;36514;52.590;21.448;2023-04-03T20:15:51;5.85;;;1.10;;
50563;SDS011;36514;52.590;21.448;2023-04-03T20:26:39;6.52;;;3.35;;
50563;SDS011;36514;52.590;21.448;2023-04-03T20:36:52;2.03;;;1.30;;
50563;SDS011;36514;52.590;21.448;2023-04-03T20:47:12;6.77;;;2.75;;
50563;SDS011;36514;52.590;21.448;2023-04-03T20:58:13;2.20;;;2.00;;
50563;SDS011;36514;52.590;21.448;2023-04-03T21:27:55;0.35;;;0.35;;
50563;SDS011;36514;52.590;21.448;2023-04-03T21:37:44;4.90;;;1.30;;
50563;SDS011;36514;52.590;21.448;2023-04-03T21:47:34;3.70;;;0.80;;
50563;SDS011;36514;52.590;21.448;2023-04-03T21:57:24;24.65;;;2.10;;
50563;SDS011;36514;52.590;21.448;2023-04-03T22:09:34;6.77;;;2.93;;
50563;SDS011;36514;52.590;21.448;2023-04-03T22:19:12;38.40;;;3.90;;
50563;SDS011;36514;52.590;21.448;2023-04-03T22:29:02;2.45;;;1.55;;
50563;SDS011;36514;52.590;21.448;2023-04-03T22:38:51;0.40;;;0.40;;
50563;SDS011;36514;52.590;21.448;2023-04-03T22:48:43;9.50;;;1.67;;
50563;SDS011;36514;52.590;21.448;2023-04-03T22:58:41;4.86;;;2.04;;
50563;SDS011;36514;52.590;21.448;2023-04-03T23:08:32;2.85;;;1.83;;
